sensor_id;sensor_type;location;lat;lon;timestamp;P1;durP1;ratioP1;P2;durP2;ratioP2
20283;SDS011;10301;50.832;4.080;2022-12-29T00:00:49;3.33;;;1.30;;
20283;SDS011;10301;50.832;4.080;2022-12-29T00:03:15;3.00;;;1.20;;
20283;SDS011;10301;50.832;4.080;2022-12-29T00:05:40;4.97;;;1.27;;
20283;SDS011;10301;50.832;4.080;2022-12-29T00:08:06;5.03;;;1.50;;
20283;SDS011;10301;50.832;4.080;2022-12-29T00:10:32;3.92;;;1.15;;
20283;SDS011;10301;50.832;4.080;2022-12-29T00:12:58;5.10;;;1.50;;
20283;SDS011;10301;50.832;4.080;2022-12-29T00:15:42;3.70;;;1.17;;
20283;SDS011;10301;50.832;4.080;2022-12-29T00:18:08;3.92;;;1.05;;
20283;SDS011;10301;50.832;4.080;2022-12-29T00:20:34;3.00;;;0.88;;
20283;SDS011;10301;50.832;4.080;2022-12-29T00:23:19;4.18;;;1.00;;
20283;SDS011;10301;50.832;4.080;2022-12-29T00:26:03;2.25;;;0.90;;
20283;SDS011;10301;50.832;4.080;2022-12-29T00:28:54;5.32;;;0.95;;
20283;SDS011;10301;50.832;4.080;2022-12-29T00:31:38;3.35;;;0.93;;
20283;SDS011;10301;50.832;4.080;2022-12-29T00:34:22;4.90;;;1.00;;
20283;SDS011;10301;50.832;4.080;2022-12-29T00:37:06;3.70;;;0.80;;
20283;SDS011;10301;50.832;4.080;2022-12-29T00:39:32;5.75;;;1.13;;
20283;SDS011;10301;50.832;4.080;2022-12-29T00:42:16;3.25;;;0.80;;
20283;SDS011;10301;50.832;4.080;2022-12-29T00:45:00;4.85;;;0.85;;
20283;SDS011;10301;50.832;4.080;2022-12-29T00:47:25;3.85;;;0.93;;
20283;SDS011;10301;50.832;4.080;2022-12-29T00:49:51;3.35;;;0.90;;
20283;SDS011;10301;50.832;4.080;2022-12-29T00:52:17;4.10;;;1.00;;
20283;SDS011;10301;50.832;4.080;2022-12-29T00:54:42;6.68;;;1.17;;
20283;SDS011;10301;50.832;4.080;2022-12-29T00:57:09;4.65;;;0.75;;
20283;SDS011;10301;50.832;4.080;2022-12-29T00:59:37;5.70;;;1.20;;
20283;SDS011;10301;50.832;4.080;2022-12-29T01:02:04;4.35;;;1.13;;
20283;SDS011;10301;50.832;4.080;2022-12-29T01:04:30;5.97;;;0.90;;
20283;SDS011;10301;50.832;4.080;2022-12-29T01:06:56;5.22;;;0.90;;
20283;SDS011;10301;50.832;4.080;2022-12-29T01:09:22;4.40;;;1.10;;
20283;SDS011;10301;50.832;4.080;2022-12-29T01:12:06;3.28;;;1.02;;
20283;SDS011;10301;50.832;4.080;2022-12-29T01:14:33;3.47;;;1.00;;
20283;SDS011;10301;50.832;4.080;2022-12-29T01:16:59;2.83;;;1.02;;
20283;SDS011;10301;50.832;4.080;2022-12-29T01:19:25;3.05;;;1.08;;
20283;SDS011;10301;50.832;4.080;2022-12-29T01:21:51;5.22;;;1.00;;
20283;SDS011;10301;50.832;4.080;2022-12-29T01:24:17;5.72;;;1.23;;
20283;SDS011;10301;50.832;4.080;2022-12-29T01:26:44;3.55;;;0.80;;
20283;SDS011;10301;50.832;4.080;2022-12-29T01:29:10;3.20;;;0.93;;
20283;SDS011;10301;50.832;4.080;2022-12-29T01:31:36;6.78;;;1.23;;
20283;SDS011;10301;50.832;4.080;2022-12-29T01:34:02;5.75;;;0.95;;
20283;SDS011;10301;50.832;4.080;2022-12-29T01:36:28;3.50;;;1.00;;
20283;SDS011;10301;50.832;4.080;2022-12-29T01:38:54;6.20;;;1.15;;
20283;SDS011;10301;50.832;4.080;2022-12-29T01:41:20;3.20;;;1.00;;
20283;SDS011;10301;50.832;4.080;2022-12-29T01:43:51;3.30;;;1.10;;
20283;SDS011;10301;50.832;4.080;2022-12-29T01:46:31;5.97;;;1.10;;
20283;SDS011;10301;50.832;4.080;2022-12-29T01:51:42;4.55;;;0.90;;
20283;SDS011;10301;50.832;4.080;2022-12-29T01:54:13;4.05;;;1.08;;
20283;SDS011;10301;50.832;4.080;2022-12-29T01:57:01;2.88;;;0.60;;
20283;SDS011;10301;50.832;4.080;2022-12-29T01:59:34;3.78;;;0.77;;
20283;SDS011;10301;50.832;4.080;2022-12-29T02:02:06;4.30;;;0.90;;
20283;SDS011;10301;50.832;4.080;2022-12-29T02:04:32;3.65;;;0.80;;
20283;SDS011;10301;50.832;4.080;2022-12-29T02:07:00;3.50;;;0.85;;
20283;SDS011;10301;50.832;4.080;2022-12-29T02:09:30;2.67;;;0.60;;
20283;SDS011;10301;50.832;4.080;2022-12-29T02:11:56;5.75;;;1.00;;
20283;SDS011;10301;50.832;4.080;2022-12-29T02:14:23;2.47;;;0.60;;
20283;SDS011;10301;50.832;4.080;2022-12-29T02:34:51;4.00;;;0.70;;
20283;SDS011;10301;50.832;4.080;2022-12-29T02:40:24;3.85;;;0.60;;
20283;SDS011;10301;50.832;4.080;2022-12-29T02:45:54;5.03;;;0.68;;
20283;SDS011;10301;50.832;4.080;2022-12-29T02:51:02;3.05;;;0.60;;
20283;SDS011;10301;50.832;4.080;2022-12-29T02:53:32;4.82;;;0.70;;
20283;SDS011;10301;50.832;4.080;2022-12-29T02:56:18;6.87;;;1.80;;
20283;SDS011;10301;50.832;4.080;2022-12-29T02:58:44;4.97;;;0.90;;
20283;SDS011;10301;50.832;4.080;2022-12-29T03:01:16;5.30;;;0.80;;
20283;SDS011;10301;50.832;4.080;2022-12-29T03:04:31;6.38;;;1.10;;
20283;SDS011;10301;50.832;4.080;2022-12-29T03:06:52;5.23;;;0.77;;
20283;SDS011;10301;50.832;4.080;2022-12-29T03:09:43;4.63;;;1.07;;
20283;SDS011;10301;50.832;4.080;2022-12-29T03:15:34;8.63;;;1.00;;
20283;SDS011;10301;50.832;4.080;2022-12-29T03:19:04;8.07;;;1.00;;
20283;SDS011;10301;50.832;4.080;2022-12-29T03:24:13;5.53;;;0.90;;
20283;SDS011;10301;50.832;4.080;2022-12-29T03:26:40;4.47;;;0.70;;
20283;SDS011;10301;50.832;4.080;2022-12-29T03:29:07;4.73;;;0.90;;
20283;SDS011;10301;50.832;4.080;2022-12-29T03:31:35;4.73;;;1.03;;
20283;SDS011;10301;50.832;4.080;2022-12-29T03:34:02;3.15;;;0.80;;
20283;SDS011;10301;50.832;4.080;2022-12-29T03:36:32;5.30;;;0.70;;
20283;SDS011;10301;50.832;4.080;2022-12-29T03:39:10;3.80;;;1.05;;
20283;SDS011;10301;50.832;4.080;2022-12-29T03:41:37;6.20;;;1.00;;
20283;SDS011;10301;50.832;4.080;2022-12-29T03:44:09;5.03;;;0.83;;
20283;SDS011;10301;50.832;4.080;2022-12-29T03:46:36;6.90;;;1.10;;
20283;SDS011;10301;50.832;4.080;2022-12-29T03:49:02;3.27;;;0.80;;
20283;SDS011;10301;50.832;4.080;2022-12-29T03:51:27;5.73;;;1.13;;
20283;SDS011;10301;50.832;4.080;2022-12-29T03:53:53;5.10;;;0.90;;
20283;SDS011;10301;50.832;4.080;2022-12-29T03:56:19;7.47;;;1.03;;
20283;SDS011;10301;50.832;4.080;2022-12-29T03:58:44;6.00;;;0.90;;
20283;SDS011;10301;50.832;4.080;2022-12-29T04:01:10;4.93;;;0.80;;
20283;SDS011;10301;50.832;4.080;2022-12-29T04:03:36;4.50;;;1.00;;
20283;SDS011;10301;50.832;4.080;2022-12-29T04:06:01;6.33;;;1.17;;
20283;SDS011;10301;50.832;4.080;2022-12-29T04:08:27;5.53;;;0.75;;
20283;SDS011;10301;50.832;4.080;2022-12-29T04:10:53;4.30;;;0.70;;
20283;SDS011;10301;50.832;4.080;2022-12-29T04:13:18;7.60;;;0.97;;
20283;SDS011;10301;50.832;4.080;2022-12-29T04:15:44;6.53;;;1.00;;
20283;SDS011;10301;50.832;4.080;2022-12-29T04:18:10;4.60;;;0.80;;
20283;SDS011;10301;50.832;4.080;2022-12-29T04:20:36;6.70;;;0.93;;
20283;SDS011;10301;50.832;4.080;2022-12-29T04:23:20;3.53;;;0.90;;
20283;SDS011;10301;50.832;4.080;2022-12-29T04:25:46;3.73;;;0.87;;
20283;SDS011;10301;50.832;4.080;2022-12-29T04:28:12;4.28;;;0.88;;
20283;SDS011;10301;50.832;4.080;2022-12-29T04:30:38;3.43;;;0.80;;
20283;SDS011;10301;50.832;4.080;2022-12-29T04:33:04;9.17;;;1.60;;
20283;SDS011;10301;50.832;4.080;2022-12-29T04:35:30;6.07;;;0.88;;
20283;SDS011;10301;50.832;4.080;2022-12-29T04:37:55;4.40;;;0.77;;
20283;SDS011;10301;50.832;4.080;2022-12-29T04:40:21;5.33;;;0.80;;
20283;SDS011;10301;50.832;4.080;2022-12-29T04:42:48;4.67;;;1.00;;
20283;SDS011;10301;50.832;4.080;2022-12-29T04:45:14;4.27;;;0.90;;
20283;SDS011;10301;50.832;4.080;2022-12-29T04:47:39;5.43;;;1.07;;
20283;SDS011;10301;50.832;4.080;2022-12-29T04:50:05;2.87;;;1.10;;
20283;SDS011;10301;50.832;4.080;2022-12-29T04:52:31;4.23;;;0.90;;
20283;SDS011;10301;50.832;4.080;2022-12-29T04:54:57;3.63;;;0.90;;
20283;SDS011;10301;50.832;4.080;2022-12-29T04:57:23;7.20;;;1.35;;
20283;SDS011;10301;50.832;4.080;2022-12-29T04:59:48;5.17;;;0.90;;
20283;SDS011;10301;50.832;4.080;2022-12-29T05:02:15;4.07;;;1.00;;
20283;SDS011;10301;50.832;4.080;2022-12-29T05:04:41;7.53;;;1.02;;
20283;SDS011;10301;50.832;4.080;2022-12-29T05:07:07;4.22;;;1.17;;
20283;SDS011;10301;50.832;4.080;2022-12-29T05:09:32;6.53;;;1.00;;
20283;SDS011;10301;50.832;4.080;2022-12-29T05:11:58;9.40;;;1.02;;
20283;SDS011;10301;50.832;4.080;2022-12-29T05:14:24;5.53;;;1.08;;
20283;SDS011;10301;50.832;4.080;2022-12-29T05:16:50;8.30;;;1.27;;
20283;SDS011;10301;50.832;4.080;2022-12-29T05:19:16;4.90;;;1.20;;
20283;SDS011;10301;50.832;4.080;2022-12-29T05:21:41;8.60;;;1.08;;
20283;SDS011;10301;50.832;4.080;2022-12-29T05:24:08;6.85;;;1.40;;
20283;SDS011;10301;50.832;4.080;2022-12-29T05:26:34;8.85;;;1.70;;
20283;SDS011;10301;50.832;4.080;2022-12-29T05:28:59;6.93;;;1.35;;
20283;SDS011;10301;50.832;4.080;2022-12-29T05:31:26;5.75;;;1.02;;
20283;SDS011;10301;50.832;4.080;2022-12-29T05:33:52;6.03;;;1.08;;
20283;SDS011;10301;50.832;4.080;2022-12-29T05:36:18;8.63;;;1.20;;
20283;SDS011;10301;50.832;4.080;2022-12-29T05:38:44;10.32;;;1.40;;
20283;SDS011;10301;50.832;4.080;2022-12-29T05:41:10;10.43;;;1.67;;
20283;SDS011;10301;50.832;4.080;2022-12-29T05:43:36;7.95;;;1.23;;
20283;SDS011;10301;50.832;4.080;2022-12-29T05:46:01;8.65;;;1.50;;
20283;SDS011;10301;50.832;4.080;2022-12-29T05:48:28;9.00;;;1.20;;
20283;SDS011;10301;50.832;4.080;2022-12-29T05:50:53;6.55;;;1.10;;
20283;SDS011;10301;50.832;4.080;2022-12-29T05:53:19;9.77;;;1.45;;
20283;SDS011;10301;50.832;4.080;2022-12-29T05:55:48;7.45;;;1.25;;
20283;SDS011;10301;50.832;4.080;2022-12-29T05:58:14;9.65;;;1.70;;
20283;SDS011;10301;50.832;4.080;2022-12-29T06:00:40;10.70;;;1.20;;
20283;SDS011;10301;50.832;4.080;2022-12-29T06:03:06;8.90;;;1.45;;
20283;SDS011;10301;50.832;4.080;2022-12-29T06:05:31;9.13;;;1.67;;
20283;SDS011;10301;50.832;4.080;2022-12-29T06:07:57;9.83;;;1.87;;
20283;SDS011;10301;50.832;4.080;2022-12-29T06:10:23;10.60;;;1.70;;
20283;SDS011;10301;50.832;4.080;2022-12-29T06:12:48;7.20;;;1.20;;
20283;SDS011;10301;50.832;4.080;2022-12-29T06:15:14;10.43;;;1.90;;
20283;SDS011;10301;50.832;4.080;2022-12-29T06:17:40;10.50;;;1.73;;
20283;SDS011;10301;50.832;4.080;2022-12-29T06:20:06;11.95;;;1.58;;
20283;SDS011;10301;50.832;4.080;2022-12-29T06:22:32;7.78;;;1.60;;
20283;SDS011;10301;50.832;4.080;2022-12-29T06:24:58;9.27;;;1.40;;
20283;SDS011;10301;50.832;4.080;2022-12-29T06:27:24;10.88;;;1.65;;
20283;SDS011;10301;50.832;4.080;2022-12-29T06:29:49;8.45;;;1.77;;
20283;SDS011;10301;50.832;4.080;2022-12-29T06:32:15;9.35;;;1.75;;
20283;SDS011;10301;50.832;4.080;2022-12-29T06:34:41;10.13;;;1.70;;
20283;SDS011;10301;50.832;4.080;2022-12-29T06:37:06;10.20;;;1.67;;
20283;SDS011;10301;50.832;4.080;2022-12-29T06:39:32;10.15;;;1.50;;
20283;SDS011;10301;50.832;4.080;2022-12-29T06:41:58;7.97;;;2.17;;
20283;SDS011;10301;50.832;4.080;2022-12-29T06:44:24;15.05;;;2.63;;
20283;SDS011;10301;50.832;4.080;2022-12-29T06:46:50;7.18;;;1.52;;
20283;SDS011;10301;50.832;4.080;2022-12-29T06:49:16;7.68;;;1.45;;
20283;SDS011;10301;50.832;4.080;2022-12-29T06:51:42;8.38;;;1.40;;
20283;SDS011;10301;50.832;4.080;2022-12-29T06:54:09;7.28;;;1.35;;
20283;SDS011;10301;50.832;4.080;2022-12-29T06:56:34;9.98;;;1.90;;
20283;SDS011;10301;50.832;4.080;2022-12-29T06:59:00;9.50;;;1.35;;
20283;SDS011;10301;50.832;4.080;2022-12-29T07:01:26;8.80;;;1.60;;
20283;SDS011;10301;50.832;4.080;2022-12-29T07:03:52;12.02;;;1.58;;
20283;SDS011;10301;50.832;4.080;2022-12-29T07:06:18;9.60;;;1.73;;
20283;SDS011;10301;50.832;4.080;2022-12-29T07:08:43;13.07;;;1.55;;
20283;SDS011;10301;50.832;4.080;2022-12-29T07:11:10;11.77;;;1.85;;
20283;SDS011;10301;50.832;4.080;2022-12-29T07:13:35;10.43;;;1.83;;
20283;SDS011;10301;50.832;4.080;2022-12-29T07:16:05;10.10;;;2.10;;
20283;SDS011;10301;50.832;4.080;2022-12-29T07:18:32;7.70;;;1.65;;
20283;SDS011;10301;50.832;4.080;2022-12-29T07:20:58;9.18;;;1.30;;
20283;SDS011;10301;50.832;4.080;2022-12-29T07:23:23;8.43;;;1.63;;
20283;SDS011;10301;50.832;4.080;2022-12-29T07:25:49;6.47;;;1.23;;
20283;SDS011;10301;50.832;4.080;2022-12-29T07:28:15;9.88;;;1.45;;
20283;SDS011;10301;50.832;4.080;2022-12-29T07:30:40;7.32;;;1.60;;
20283;SDS011;10301;50.832;4.080;2022-12-29T07:33:06;7.78;;;1.77;;
20283;SDS011;10301;50.832;4.080;2022-12-29T07:35:33;8.98;;;1.40;;
20283;SDS011;10301;50.832;4.080;2022-12-29T07:37:59;9.13;;;1.33;;
20283;SDS011;10301;50.832;4.080;2022-12-29T07:40:25;6.60;;;1.23;;
20283;SDS011;10301;50.832;4.080;2022-12-29T07:42:51;10.88;;;1.90;;
20283;SDS011;10301;50.832;4.080;2022-12-29T07:45:16;7.95;;;1.30;;
20283;SDS011;10301;50.832;4.080;2022-12-29T07:47:42;13.45;;;1.83;;
20283;SDS011;10301;50.832;4.080;2022-12-29T07:50:07;5.90;;;1.48;;
20283;SDS011;10301;50.832;4.080;2022-12-29T07:52:33;11.80;;;2.00;;
20283;SDS011;10301;50.832;4.080;2022-12-29T07:54:59;11.57;;;2.63;;
20283;SDS011;10301;50.832;4.080;2022-12-29T07:57:24;8.83;;;2.00;;
20283;SDS011;10301;50.832;4.080;2022-12-29T07:59:50;8.18;;;1.80;;
20283;SDS011;10301;50.832;4.080;2022-12-29T08:02:16;9.75;;;1.67;;
20283;SDS011;10301;50.832;4.080;2022-12-29T08:04:41;8.65;;;2.03;;
20283;SDS011;10301;50.832;4.080;2022-12-29T08:07:07;11.35;;;1.95;;
20283;SDS011;10301;50.832;4.080;2022-12-29T08:09:32;6.75;;;1.50;;
20283;SDS011;10301;50.832;4.080;2022-12-29T08:11:59;8.45;;;1.85;;
20283;SDS011;10301;50.832;4.080;2022-12-29T08:14:24;10.98;;;1.90;;
20283;SDS011;10301;50.832;4.080;2022-12-29T08:16:50;12.02;;;1.85;;
20283;SDS011;10301;50.832;4.080;2022-12-29T08:19:16;8.27;;;1.58;;
20283;SDS011;10301;50.832;4.080;2022-12-29T08:21:41;10.95;;;1.27;;
20283;SDS011;10301;50.832;4.080;2022-12-29T08:24:07;10.48;;;1.90;;
20283;SDS011;10301;50.832;4.080;2022-12-29T08:26:34;12.10;;;1.77;;
20283;SDS011;10301;50.832;4.080;2022-12-29T08:29:00;8.77;;;1.52;;
20283;SDS011;10301;50.832;4.080;2022-12-29T08:31:25;7.25;;;1.38;;
20283;SDS011;10301;50.832;4.080;2022-12-29T08:33:51;6.25;;;1.58;;
20283;SDS011;10301;50.832;4.080;2022-12-29T08:36:17;13.90;;;1.80;;
20283;SDS011;10301;50.832;4.080;2022-12-29T08:38:42;10.32;;;1.90;;
20283;SDS011;10301;50.832;4.080;2022-12-29T08:41:08;11.35;;;1.65;;
20283;SDS011;10301;50.832;4.080;2022-12-29T08:43:33;14.95;;;2.05;;
20283;SDS011;10301;50.832;4.080;2022-12-29T08:45:59;9.50;;;2.35;;
20283;SDS011;10301;50.832;4.080;2022-12-29T08:48:25;11.32;;;2.20;;
20283;SDS011;10301;50.832;4.080;2022-12-29T08:50:51;8.52;;;2.20;;
20283;SDS011;10301;50.832;4.080;2022-12-29T08:53:17;11.93;;;2.35;;
20283;SDS011;10301;50.832;4.080;2022-12-29T08:55:47;12.27;;;2.53;;
20283;SDS011;10301;50.832;4.080;2022-12-29T08:58:19;10.80;;;2.75;;
20283;SDS011;10301;50.832;4.080;2022-12-29T09:00:45;12.97;;;1.83;;
20283;SDS011;10301;50.832;4.080;2022-12-29T09:03:10;13.50;;;2.20;;
20283;SDS011;10301;50.832;4.080;2022-12-29T09:05:36;15.33;;;2.60;;
20283;SDS011;10301;50.832;4.080;2022-12-29T09:08:02;9.83;;;2.00;;
20283;SDS011;10301;50.832;4.080;2022-12-29T09:10:28;13.33;;;2.13;;
20283;SDS011;10301;50.832;4.080;2022-12-29T09:12:53;10.57;;;2.10;;
20283;SDS011;10301;50.832;4.080;2022-12-29T09:15:19;14.73;;;1.90;;
20283;SDS011;10301;50.832;4.080;2022-12-29T09:17:45;11.68;;;2.40;;
20283;SDS011;10301;50.832;4.080;2022-12-29T09:20:15;11.90;;;2.70;;
20283;SDS011;10301;50.832;4.080;2022-12-29T09:22:42;13.57;;;2.60;;
20283;SDS011;10301;50.832;4.080;2022-12-29T09:25:09;13.73;;;2.23;;
20283;SDS011;10301;50.832;4.080;2022-12-29T09:27:35;8.40;;;2.20;;
20283;SDS011;10301;50.832;4.080;2022-12-29T09:30:06;10.20;;;2.10;;
20283;SDS011;10301;50.832;4.080;2022-12-29T09:32:33;12.73;;;2.57;;
20283;SDS011;10301;50.832;4.080;2022-12-29T09:34:59;15.00;;;2.65;;
20283;SDS011;10301;50.832;4.080;2022-12-29T09:37:24;13.60;;;1.90;;
20283;SDS011;10301;50.832;4.080;2022-12-29T09:39:50;10.67;;;1.63;;
20283;SDS011;10301;50.832;4.080;2022-12-29T09:45:12;11.43;;;2.00;;
20283;SDS011;10301;50.832;4.080;2022-12-29T09:47:44;16.30;;;3.57;;
20283;SDS011;10301;50.832;4.080;2022-12-29T09:55:42;12.17;;;2.13;;
20283;SDS011;10301;50.832;4.080;2022-12-29T09:58:30;13.43;;;2.45;;
20283;SDS011;10301;50.832;4.080;2022-12-29T10:03:47;13.05;;;2.25;;
20283;SDS011;10301;50.832;4.080;2022-12-29T10:23:25;14.07;;;2.38;;
20283;SDS011;10301;50.832;4.080;2022-12-29T10:25:53;13.27;;;2.00;;
20283;SDS011;10301;50.832;4.080;2022-12-29T10:28:29;14.90;;;1.92;;
20283;SDS011;10301;50.832;4.080;2022-12-29T10:31:17;12.98;;;1.70;;
20283;SDS011;10301;50.832;4.080;2022-12-29T10:33:48;8.48;;;2.30;;
20283;SDS011;10301;50.832;4.080;2022-12-29T10:36:21;12.02;;;2.08;;
20283;SDS011;10301;50.832;4.080;2022-12-29T10:39:31;10.95;;;2.55;;
20283;SDS011;10301;50.832;4.080;2022-12-29T10:44:40;11.88;;;1.67;;
20283;SDS011;10301;50.832;4.080;2022-12-29T10:47:12;10.80;;;2.47;;
20283;SDS011;10301;50.832;4.080;2022-12-29T10:49:44;12.60;;;1.80;;
20283;SDS011;10301;50.832;4.080;2022-12-29T10:52:11;13.80;;;3.03;;
20283;SDS011;10301;50.832;4.080;2022-12-29T10:57:25;15.07;;;3.00;;
20283;SDS011;10301;50.832;4.080;2022-12-29T10:59:55;19.00;;;5.38;;
20283;SDS011;10301;50.832;4.080;2022-12-29T11:02:28;24.08;;;8.85;;
20283;SDS011;10301;50.832;4.080;2022-12-29T11:07:38;18.02;;;4.47;;
20283;SDS011;10301;50.832;4.080;2022-12-29T11:10:21;11.85;;;3.22;;
20283;SDS011;10301;50.832;4.080;2022-12-29T11:15:26;10.45;;;3.17;;
20283;SDS011;10301;50.832;4.080;2022-12-29T11:17:52;12.57;;;2.58;;
20283;SDS011;10301;50.832;4.080;2022-12-29T11:20:35;10.05;;;2.67;;
20283;SDS011;10301;50.832;4.080;2022-12-29T11:23:04;12.15;;;2.00;;
20283;SDS011;10301;50.832;4.080;2022-12-29T11:26:12;12.35;;;2.28;;
20283;SDS011;10301;50.832;4.080;2022-12-29T11:28:39;11.77;;;2.47;;
20283;SDS011;10301;50.832;4.080;2022-12-29T11:31:07;18.70;;;2.60;;
20283;SDS011;10301;50.832;4.080;2022-12-29T11:33:34;14.70;;;3.35;;
20283;SDS011;10301;50.832;4.080;2022-12-29T11:36:11;8.85;;;2.25;;
20283;SDS011;10301;50.832;4.080;2022-12-29T11:38:40;11.90;;;2.67;;
20283;SDS011;10301;50.832;4.080;2022-12-29T11:41:12;8.77;;;2.05;;
20283;SDS011;10301;50.832;4.080;2022-12-29T11:43:43;8.70;;;1.67;;
20283;SDS011;10301;50.832;4.080;2022-12-29T11:46:14;8.82;;;2.25;;
20283;SDS011;10301;50.832;4.080;2022-12-29T11:48:44;11.48;;;2.17;;
20283;SDS011;10301;50.832;4.080;2022-12-29T11:51:12;14.20;;;2.53;;
20283;SDS011;10301;50.832;4.080;2022-12-29T11:53:47;13.00;;;2.08;;
20283;SDS011;10301;50.832;4.080;2022-12-29T11:56:30;10.50;;;2.20;;
20283;SDS011;10301;50.832;4.080;2022-12-29T12:01:54;7.57;;;1.67;;
20283;SDS011;10301;50.832;4.080;2022-12-29T12:04:23;14.43;;;2.00;;
20283;SDS011;10301;50.832;4.080;2022-12-29T12:07:02;11.95;;;2.22;;
20283;SDS011;10301;50.832;4.080;2022-12-29T12:09:45;13.55;;;2.05;;
20283;SDS011;10301;50.832;4.080;2022-12-29T12:12:22;11.85;;;2.10;;
20283;SDS011;10301;50.832;4.080;2022-12-29T12:14:55;11.23;;;1.92;;
20283;SDS011;10301;50.832;4.080;2022-12-29T12:20:21;13.90;;;2.00;;
20283;SDS011;10301;50.832;4.080;2022-12-29T12:22:54;17.38;;;2.42;;
20283;SDS011;10301;50.832;4.080;2022-12-29T12:25:31;12.45;;;2.00;;
20283;SDS011;10301;50.832;4.080;2022-12-29T12:28:05;9.55;;;1.80;;
20283;SDS011;10301;50.832;4.080;2022-12-29T12:30:44;10.20;;;2.15;;
20283;SDS011;10301;50.832;4.080;2022-12-29T12:33:30;9.68;;;1.75;;
20283;SDS011;10301;50.832;4.080;2022-12-29T12:41:16;13.27;;;3.67;;
20283;SDS011;10301;50.832;4.080;2022-12-29T12:54:59;9.43;;;1.92;;
20283;SDS011;10301;50.832;4.080;2022-12-29T12:57:57;10.63;;;2.20;;
20283;SDS011;10301;50.832;4.080;2022-12-29T13:00:42;10.05;;;2.40;;
20283;SDS011;10301;50.832;4.080;2022-12-29T13:18:05;11.77;;;1.80;;
20283;SDS011;10301;50.832;4.080;2022-12-29T13:20:49;10.90;;;2.20;;
20283;SDS011;10301;50.832;4.080;2022-12-29T13:26:44;13.30;;;2.40;;
20283;SDS011;10301;50.832;4.080;2022-12-29T13:29:34;17.15;;;2.80;;
20283;SDS011;10301;50.832;4.080;2022-12-29T13:35:02;12.45;;;3.22;;
20283;SDS011;10301;50.832;4.080;2022-12-29T13:37:46;13.55;;;2.53;;
20283;SDS011;10301;50.832;4.080;2022-12-29T13:40:35;10.80;;;2.13;;
20283;SDS011;10301;50.832;4.080;2022-12-29T13:43:06;10.25;;;2.10;;
20283;SDS011;10301;50.832;4.080;2022-12-29T13:45:33;11.82;;;3.85;;
20283;SDS011;10301;50.832;4.080;2022-12-29T13:48:09;15.32;;;3.00;;
20283;SDS011;10301;50.832;4.080;2022-12-29T13:50:45;14.18;;;3.05;;
20283;SDS011;10301;50.832;4.080;2022-12-29T14:01:59;17.23;;;3.20;;
20283;SDS011;10301;50.832;4.080;2022-12-29T14:04:33;13.93;;;2.70;;
20283;SDS011;10301;50.832;4.080;2022-12-29T14:09:45;9.43;;;2.25;;
20283;SDS011;10301;50.832;4.080;2022-12-29T14:17:37;6.63;;;1.70;;
20283;SDS011;10301;50.832;4.080;2022-12-29T14:20:05;5.33;;;1.47;;
20283;SDS011;10301;50.832;4.080;2022-12-29T14:25:54;12.73;;;1.90;;
20283;SDS011;10301;50.832;4.080;2022-12-29T14:28:24;9.70;;;1.63;;
20283;SDS011;10301;50.832;4.080;2022-12-29T14:30:53;11.10;;;2.70;;
20283;SDS011;10301;50.832;4.080;2022-12-29T14:33:22;10.20;;;2.80;;
20283;SDS011;10301;50.832;4.080;2022-12-29T14:35:51;8.53;;;2.47;;
20283;SDS011;10301;50.832;4.080;2022-12-29T14:38:25;6.90;;;2.07;;
20283;SDS011;10301;50.832;4.080;2022-12-29T14:40:52;10.63;;;2.10;;
20283;SDS011;10301;50.832;4.080;2022-12-29T14:43:38;13.30;;;2.17;;
20283;SDS011;10301;50.832;4.080;2022-12-29T14:46:05;8.07;;;1.87;;
20283;SDS011;10301;50.832;4.080;2022-12-29T14:48:37;9.13;;;1.73;;
20283;SDS011;10301;50.832;4.080;2022-12-29T14:54:26;9.63;;;1.73;;
20283;SDS011;10301;50.832;4.080;2022-12-29T14:56:59;5.50;;;1.60;;
20283;SDS011;10301;50.832;4.080;2022-12-29T14:59:29;9.70;;;1.60;;
20283;SDS011;10301;50.832;4.080;2022-12-29T15:01:57;9.23;;;1.70;;
20283;SDS011;10301;50.832;4.080;2022-12-29T15:04:32;6.93;;;1.50;;
20283;SDS011;10301;50.832;4.080;2022-12-29T15:07:00;8.67;;;1.80;;
20283;SDS011;10301;50.832;4.080;2022-12-29T15:12:51;9.60;;;2.13;;
20283;SDS011;10301;50.832;4.080;2022-12-29T15:15:38;9.80;;;1.60;;
20283;SDS011;10301;50.832;4.080;2022-12-29T15:18:23;12.23;;;1.87;;
20283;SDS011;10301;50.832;4.080;2022-12-29T15:20:53;8.73;;;2.40;;
20283;SDS011;10301;50.832;4.080;2022-12-29T15:23:21;12.33;;;2.30;;
20283;SDS011;10301;50.832;4.080;2022-12-29T15:25:50;7.57;;;1.80;;
20283;SDS011;10301;50.832;4.080;2022-12-29T15:28:24;14.40;;;3.00;;
20283;SDS011;10301;50.832;4.080;2022-12-29T15:30:51;11.73;;;2.87;;
20283;SDS011;10301;50.832;4.080;2022-12-29T15:33:18;9.20;;;2.37;;
20283;SDS011;10301;50.832;4.080;2022-12-29T15:35:44;8.10;;;1.80;;
20283;SDS011;10301;50.832;4.080;2022-12-29T15:38:20;8.03;;;1.67;;
20283;SDS011;10301;50.832;4.080;2022-12-29T15:40:52;15.73;;;2.67;;
20283;SDS011;10301;50.832;4.080;2022-12-29T15:43:23;11.17;;;2.00;;
20283;SDS011;10301;50.832;4.080;2022-12-29T15:45:57;10.87;;;2.93;;
20283;SDS011;10301;50.832;4.080;2022-12-29T15:48:25;12.97;;;2.90;;
20283;SDS011;10301;50.832;4.080;2022-12-29T15:50:51;10.33;;;2.83;;
20283;SDS011;10301;50.832;4.080;2022-12-29T15:53:24;9.83;;;1.83;;
20283;SDS011;10301;50.832;4.080;2022-12-29T15:55:54;13.10;;;2.70;;
20283;SDS011;10301;50.832;4.080;2022-12-29T15:58:30;10.60;;;2.47;;
20283;SDS011;10301;50.832;4.080;2022-12-29T16:01:04;11.10;;;2.33;;
20283;SDS011;10301;50.832;4.080;2022-12-29T16:03:31;10.30;;;2.30;;
20283;SDS011;10301;50.832;4.080;2022-12-29T16:06:09;12.87;;;2.60;;
20283;SDS011;10301;50.832;4.080;2022-12-29T16:08:55;20.40;;;5.93;;
20283;SDS011;10301;50.832;4.080;2022-12-29T16:11:49;17.47;;;5.40;;
20283;SDS011;10301;50.832;4.080;2022-12-29T16:14:19;16.40;;;4.27;;
20283;SDS011;10301;50.832;4.080;2022-12-29T16:16:50;20.77;;;5.67;;
20283;SDS011;10301;50.832;4.080;2022-12-29T16:19:58;15.27;;;4.60;;
20283;SDS011;10301;50.832;4.080;2022-12-29T16:22:10;18.33;;;4.97;;
20283;SDS011;10301;50.832;4.080;2022-12-29T16:24:40;17.63;;;4.77;;
20283;SDS011;10301;50.832;4.080;2022-12-29T16:27:14;20.80;;;4.67;;
20283;SDS011;10301;50.832;4.080;2022-12-29T16:29:53;20.00;;;5.10;;
20283;SDS011;10301;50.832;4.080;2022-12-29T16:32:28;15.63;;;3.80;;
20283;SDS011;10301;50.832;4.080;2022-12-29T16:35:09;15.47;;;3.63;;
20283;SDS011;10301;50.832;4.080;2022-12-29T16:37:42;16.67;;;3.87;;
20283;SDS011;10301;50.832;4.080;2022-12-29T16:42:53;21.27;;;4.77;;
20283;SDS011;10301;50.832;4.080;2022-12-29T16:47:47;15.57;;;3.40;;
20283;SDS011;10301;50.832;4.080;2022-12-29T16:50:29;17.40;;;3.40;;
20283;SDS011;10301;50.832;4.080;2022-12-29T16:52:56;14.83;;;3.53;;
20283;SDS011;10301;50.832;4.080;2022-12-29T16:55:21;13.73;;;3.10;;
20283;SDS011;10301;50.832;4.080;2022-12-29T16:57:48;15.47;;;3.13;;
20283;SDS011;10301;50.832;4.080;2022-12-29T17:00:19;14.00;;;3.27;;
20283;SDS011;10301;50.832;4.080;2022-12-29T17:02:48;14.73;;;3.30;;
20283;SDS011;10301;50.832;4.080;2022-12-29T17:05:16;16.73;;;2.80;;
20283;SDS011;10301;50.832;4.080;2022-12-29T17:07:43;18.03;;;3.67;;
20283;SDS011;10301;50.832;4.080;2022-12-29T17:10:09;24.17;;;3.73;;
20283;SDS011;10301;50.832;4.080;2022-12-29T17:12:35;16.90;;;3.30;;
20283;SDS011;10301;50.832;4.080;2022-12-29T17:15:06;16.30;;;3.80;;
20283;SDS011;10301;50.832;4.080;2022-12-29T17:17:39;17.77;;;2.93;;
20283;SDS011;10301;50.832;4.080;2022-12-29T17:20:20;24.27;;;3.20;;
20283;SDS011;10301;50.832;4.080;2022-12-29T17:22:48;15.23;;;3.30;;
20283;SDS011;10301;50.832;4.080;2022-12-29T17:25:19;18.70;;;2.90;;
20283;SDS011;10301;50.832;4.080;2022-12-29T17:30:23;16.50;;;3.57;;